sensor_id;sensor_type;location;lat;lon;timestamp;pressure;altitude;pressure_sealevel;temperature;humidity
49515;BME280;35415;47.870;16.058;2022-12-11T00:00:43;95958.09;;;1.16;96.17
49515;BME280;35415;47.870;16.058;2022-12-11T00:06:39;95907.63;;;0.89;96.33
49515;BME280;35415;47.870;16.058;2022-12-11T00:09:45;95920.94;;;0.95;96.04
49515;BME280;35415;47.870;16.058;2022-12-11T00:12:19;95999.00;;;1.37;95.53
49515;BME280;35415;47.870;16.058;2022-12-11T00:15:29;95983.09;;;1.37;95.28
49515;BME280;35415;47.870;16.058;2022-12-11T00:18:40;95907.75;;;0.83;95.28
49515;BME280;35415;47.870;16.058;2022-12-11T00:21:42;95887.81;;;0.75;95.46
49515;BME280;35415;47.870;16.058;2022-12-11T00:27:25;95964.00;;;1.18;95.10
49515;BME280;35415;47.870;16.058;2022-12-11T00:30:34;95941.56;;;1.09;94.80
49515;BME280;35415;47.870;16.058;2022-12-11T00:33:28;95950.16;;;1.16;94.70
49515;BME280;35415;47.870;16.058;2022-12-11T00:36:24;95898.41;;;0.92;94.54
49515;BME280;35415;47.870;16.058;2022-12-11T00:39:26;95945.91;;;1.15;94.16
49515;BME280;35415;47.870;16.058;2022-12-11T00:42:38;95976.09;;;1.31;93.85
49515;BME280;35415;47.870;16.058;2022-12-11T00:45:42;95954.41;;;1.17;94.23
49515;BME280;35415;47.870;16.058;2022-12-11T00:48:24;95952.22;;;0.98;94.58
49515;BME280;35415;47.870;16.058;2022-12-11T00:55:06;95920.44;;;0.81;94.03
49515;BME280;35415;47.870;16.058;2022-12-11T00:57:06;95948.47;;;0.94;93.98
49515;BME280;35415;47.870;16.058;2022-12-11T00:59:44;95926.78;;;0.80;93.72
49515;BME280;35415;47.870;16.058;2022-12-11T01:02:25;95927.91;;;0.84;94.03
49515;BME280;35415;47.870;16.058;2022-12-11T01:05:15;95974.41;;;1.08;93.84
49515;BME280;35415;47.870;16.058;2022-12-11T01:07:59;95964.84;;;1.07;93.63
49515;BME280;35415;47.870;16.058;2022-12-11T01:11:17;95924.09;;;0.63;93.66
49515;BME280;35415;47.870;16.058;2022-12-11T01:14:16;95968.84;;;0.93;93.52
49515;BME280;35415;47.870;16.058;2022-12-11T01:17:42;95925.94;;;0.63;94.00
49515;BME280;35415;47.870;16.058;2022-12-11T01:20:22;95979.50;;;0.98;93.70
49515;BME280;35415;47.870;16.058;2022-12-11T01:23:32;95915.47;;;0.68;93.14
49515;BME280;35415;47.870;16.058;2022-12-11T01:26:31;95924.53;;;0.72;92.96
49515;BME280;35415;47.870;16.058;2022-12-11T01:29:34;95994.94;;;1.01;93.34
49515;BME280;35415;47.870;16.058;2022-12-11T01:32:33;95994.59;;;0.98;92.98
49515;BME280;35415;47.870;16.058;2022-12-11T01:38:41;95951.59;;;0.62;92.84
49515;BME280;35415;47.870;16.058;2022-12-11T01:41:26;96019.91;;;1.05;92.26
49515;BME280;35415;47.870;16.058;2022-12-11T01:48:29;96009.81;;;0.90;91.78
49515;BME280;35415;47.870;16.058;2022-12-11T01:51:41;95957.53;;;0.52;91.89
49515;BME280;35415;47.870;16.058;2022-12-11T01:54:52;95952.91;;;0.48;91.67
49515;BME280;35415;47.870;16.058;2022-12-11T01:58:10;95972.25;;;0.48;91.78
49515;BME280;35415;47.870;16.058;2022-12-11T02:01:09;96003.59;;;0.68;91.86
49515;BME280;35415;47.870;16.058;2022-12-11T02:04:32;95968.72;;;0.31;92.09
49515;BME280;35415;47.870;16.058;2022-12-11T02:07:38;96023.72;;;0.69;92.55
49515;BME280;35415;47.870;16.058;2022-12-11T02:10:54;95985.38;;;0.43;93.23
49515;BME280;35415;47.870;16.058;2022-12-11T02:20:45;95970.25;;;0.27;92.23
49515;BME280;35415;47.870;16.058;2022-12-11T02:27:29;96013.09;;;0.52;92.17
49515;BME280;35415;47.870;16.058;2022-12-11T02:30:29;95972.22;;;0.20;92.11
49515;BME280;35415;47.870;16.058;2022-12-11T02:33:41;96014.56;;;0.48;92.29
49515;BME280;35415;47.870;16.058;2022-12-11T02:43:23;95998.13;;;0.46;92.60
49515;BME280;35415;47.870;16.058;2022-12-11T02:46:22;95983.84;;;0.07;92.41
49515;BME280;35415;47.870;16.058;2022-12-11T02:49:22;95950.19;;;0.03;92.53
49515;BME280;35415;47.870;16.058;2022-12-11T02:52:25;95962.38;;;0.04;92.78
49515;BME280;35415;47.870;16.058;2022-12-11T02:55:19;96004.84;;;0.25;92.96
49515;BME280;35415;47.870;16.058;2022-12-11T03:01:51;95970.06;;;-0.07;91.50
49515;BME280;35415;47.870;16.058;2022-12-11T03:04:59;95960.88;;;-0.04;90.77
49515;BME280;35415;47.870;16.058;2022-12-11T03:07:44;95949.88;;;-0.13;89.11
49515;BME280;35415;47.870;16.058;2022-12-11T03:10:41;96015.09;;;0.22;89.00
49515;BME280;35415;47.870;16.058;2022-12-11T03:13:49;96030.56;;;0.42;88.25
49515;BME280;35415;47.870;16.058;2022-12-11T03:16:48;96011.66;;;0.21;89.08
49515;BME280;35415;47.870;16.058;2022-12-11T03:19:49;96012.78;;;0.14;89.04
49515;BME280;35415;47.870;16.058;2022-12-11T03:22:59;96030.50;;;0.25;89.28
49515;BME280;35415;47.870;16.058;2022-12-11T03:26:22;95956.66;;;-0.17;89.23
49515;BME280;35415;47.870;16.058;2022-12-11T03:29:23;96036.13;;;0.28;89.90
49515;BME280;35415;47.870;16.058;2022-12-11T03:32:20;96004.63;;;0.15;90.77
49515;BME280;35415;47.870;16.058;2022-12-11T03:35:52;95973.75;;;-0.19;91.28
49515;BME280;35415;47.870;16.058;2022-12-11T03:38:43;95968.84;;;-0.16;92.04
49515;BME280;35415;47.870;16.058;2022-12-11T03:41:32;95961.47;;;-0.25;92.16
49515;BME280;35415;47.870;16.058;2022-12-11T03:44:59;95971.25;;;-0.26;92.95
49515;BME280;35415;47.870;16.058;2022-12-11T03:47:37;95982.16;;;-0.11;93.20
49515;BME280;35415;47.870;16.058;2022-12-11T03:50:49;95946.44;;;-0.25;93.48
49515;BME280;35415;47.870;16.058;2022-12-11T03:54:13;95972.63;;;-0.23;93.02
49515;BME280;35415;47.870;16.058;2022-12-11T03:56:58;95944.94;;;-0.33;91.81
49515;BME280;35415;47.870;16.058;2022-12-11T03:59:40;95965.16;;;-0.26;91.61
49515;BME280;35415;47.870;16.058;2022-12-11T04:02:27;95942.88;;;-0.31;91.05
49515;BME280;35415;47.870;16.058;2022-12-11T04:05:13;95938.25;;;-0.35;90.95
49515;BME280;35415;47.870;16.058;2022-12-11T04:08:30;95972.50;;;-0.28;91.16
49515;BME280;35415;47.870;16.058;2022-12-11T04:11:25;95975.25;;;-0.12;90.66
49515;BME280;35415;47.870;16.058;2022-12-11T04:15:18;95987.53;;;-0.06;90.90
49515;BME280;35415;47.870;16.058;2022-12-11T04:18:01;95944.34;;;-0.35;90.67
49515;BME280;35415;47.870;16.058;2022-12-11T04:21:03;95989.16;;;-0.16;90.50
49515;BME280;35415;47.870;16.058;2022-12-11T04:24:00;95947.69;;;-0.39;91.41
49515;BME280;35415;47.870;16.058;2022-12-11T04:27:13;95945.06;;;-0.39;92.30
49515;BME280;35415;47.870;16.058;2022-12-11T04:30:51;95996.16;;;-0.10;93.33
49515;BME280;35415;47.870;16.058;2022-12-11T04:33:06;95946.31;;;-0.42;93.33
49515;BME280;35415;47.870;16.058;2022-12-11T04:38:55;95968.38;;;-0.48;94.14
49515;BME280;35415;47.870;16.058;2022-12-11T04:41:52;96010.88;;;-0.14;94.02
49515;BME280;35415;47.870;16.058;2022-12-11T04:44:36;96035.25;;;-0.12;94.28
49515;BME280;35415;47.870;16.058;2022-12-11T04:47:51;96026.03;;;-0.21;94.35
49515;BME280;35415;47.870;16.058;2022-12-11T04:50:50;96047.06;;;-0.03;95.02
49515;BME280;35415;47.870;16.058;2022-12-11T04:53:20;96011.56;;;-0.31;94.97
49515;BME280;35415;47.870;16.058;2022-12-11T04:56:00;95983.06;;;-0.40;95.75
49515;BME280;35415;47.870;16.058;2022-12-11T04:58:39;96008.13;;;-0.43;96.01
49515;BME280;35415;47.870;16.058;2022-12-11T05:01:44;95971.25;;;-0.61;95.76
49515;BME280;35415;47.870;16.058;2022-12-11T05:04:35;95974.94;;;-0.50;96.04
49515;BME280;35415;47.870;16.058;2022-12-11T05:07:32;95969.41;;;-0.61;95.97
49515;BME280;35415;47.870;16.058;2022-12-11T05:10:42;95964.81;;;-0.65;95.73
49515;BME280;35415;47.870;16.058;2022-12-11T05:17:11;96022.69;;;-0.40;95.55
49515;BME280;35415;47.870;16.058;2022-12-11T05:20:29;95979.16;;;-0.61;95.55
49515;BME280;35415;47.870;16.058;2022-12-11T05:23:19;95987.53;;;-0.64;95.25
49515;BME280;35415;47.870;16.058;2022-12-11T05:26:00;96048.56;;;-0.19;95.44
49515;BME280;35415;47.870;16.058;2022-12-11T05:29:01;95993.16;;;-0.61;94.88
49515;BME280;35415;47.870;16.058;2022-12-11T05:31:42;95987.63;;;-0.71;95.23
49515;BME280;35415;47.870;16.058;2022-12-11T05:34:44;96012.00;;;-0.57;94.90
49515;BME280;35415;47.870;16.058;2022-12-11T05:37:52;96038.88;;;-0.37;94.90
49515;BME280;35415;47.870;16.058;2022-12-11T05:40:59;96035.22;;;-0.36;94.86
49515;BME280;35415;47.870;16.058;2022-12-11T05:43:34;96039.59;;;-0.41;95.04
49515;BME280;35415;47.870;16.058;2022-12-11T05:46:43;96064.53;;;-0.14;94.92
49515;BME280;35415;47.870;16.058;2022-12-11T05:49:37;96036.47;;;-0.38;93.20
49515;BME280;35415;47.870;16.058;2022-12-11T05:52:17;96074.97;;;-0.31;93.10
49515;BME280;35415;47.870;16.058;2022-12-11T05:55:34;96000.59;;;-0.69;93.29
49515;BME280;35415;47.870;16.058;2022-12-11T05:58:28;96078.88;;;-0.21;92.63
49515;BME280;35415;47.870;16.058;2022-12-11T06:02:06;96049.22;;;-0.47;90.71
49515;BME280;35415;47.870;16.058;2022-12-11T06:04:26;96056.72;;;-0.32;90.69
49515;BME280;35415;47.870;16.058;2022-12-11T06:07:13;96083.50;;;-0.05;90.00
49515;BME280;35415;47.870;16.058;2022-12-11T06:12:04;96069.00;;;-0.26;89.84
49515;BME280;35415;47.870;16.058;2022-12-11T06:13:07;96091.56;;;0.00;87.96
49515;BME280;35415;47.870;16.058;2022-12-11T06:15:37;96070.75;;;-0.08;87.63
49515;BME280;35415;47.870;16.058;2022-12-11T06:18:09;96049.25;;;-0.23;87.24
49515;BME280;35415;47.870;16.058;2022-12-11T06:20:57;96100.41;;;0.06;86.42
49515;BME280;35415;47.870;16.058;2022-12-11T06:23:39;96033.38;;;-0.35;86.02
49515;BME280;35415;47.870;16.058;2022-12-11T06:26:35;96068.56;;;-0.11;85.27
49515;BME280;35415;47.870;16.058;2022-12-11T06:29:03;96082.81;;;-0.01;85.28
49515;BME280;35415;47.870;16.058;2022-12-11T06:31:54;96008.34;;;-0.44;85.20
49515;BME280;35415;47.870;16.058;2022-12-11T06:34:35;96078.00;;;0.08;84.44
49515;BME280;35415;47.870;16.058;2022-12-11T06:37:58;96055.22;;;-0.05;84.05
49515;BME280;35415;47.870;16.058;2022-12-11T06:40:55;96007.19;;;-0.48;83.72
49515;BME280;35415;47.870;16.058;2022-12-11T06:43:46;96048.09;;;-0.04;83.82
49515;BME280;35415;47.870;16.058;2022-12-11T06:46:35;96013.97;;;-0.17;83.79
49515;BME280;35415;47.870;16.058;2022-12-11T06:49:46;96039.13;;;-0.03;83.87
49515;BME280;35415;47.870;16.058;2022-12-11T06:52:39;96052.34;;;-0.03;82.85
49515;BME280;35415;47.870;16.058;2022-12-11T06:55:18;96026.16;;;-0.28;82.27
49515;BME280;35415;47.870;16.058;2022-12-11T06:58:41;96098.69;;;0.23;82.55
49515;BME280;35415;47.870;16.058;2022-12-11T07:01:27;96083.03;;;0.10;81.03
49515;BME280;35415;47.870;16.058;2022-12-11T07:04:26;96039.38;;;-0.16;81.18
49515;BME280;35415;47.870;16.058;2022-12-11T07:07:07;96039.38;;;-0.05;81.01
49515;BME280;35415;47.870;16.058;2022-12-11T07:09:47;96061.09;;;0.09;80.51
49515;BME280;35415;47.870;16.058;2022-12-11T07:12:47;96070.84;;;0.09;81.06
49515;BME280;35415;47.870;16.058;2022-12-11T07:18:46;96062.25;;;0.02;80.41
49515;BME280;35415;47.870;16.058;2022-12-11T07:21:30;96022.81;;;-0.23;79.95
49515;BME280;35415;47.870;16.058;2022-12-11T07:24:49;96061.91;;;0.10;80.20
49515;BME280;35415;47.870;16.058;2022-12-11T07:28:46;96072.81;;;0.13;79.39
49515;BME280;35415;47.870;16.058;2022-12-11T07:31:31;96063.41;;;0.06;79.66
49515;BME280;35415;47.870;16.058;2022-12-11T07:34:13;96082.44;;;0.31;80.04
49515;BME280;35415;47.870;16.058;2022-12-11T07:36:58;95997.31;;;-0.29;79.21
49515;BME280;35415;47.870;16.058;2022-12-11T07:40:28;96031.09;;;-0.08;79.03
49515;BME280;35415;47.870;16.058;2022-12-11T07:43:29;96048.09;;;0.19;79.05
49515;BME280;35415;47.870;16.058;2022-12-11T07:46:46;95997.09;;;-0.16;78.94
49515;BME280;35415;47.870;16.058;2022-12-11T07:49:16;96010.41;;;-0.11;78.60
49515;BME280;35415;47.870;16.058;2022-12-11T07:52:21;96014.34;;;-0.14;78.28
49515;BME280;35415;47.870;16.058;2022-12-11T07:55:25;96048.22;;;0.13;78.25
49515;BME280;35415;47.870;16.058;2022-12-11T08:00:57;96077.75;;;0.21;78.65
49515;BME280;35415;47.870;16.058;2022-12-11T08:04:00;96039.03;;;0.04;78.92
49515;BME280;35415;47.870;16.058;2022-12-11T08:07:05;96029.59;;;-0.04;78.17
49515;BME280;35415;47.870;16.058;2022-12-11T08:09:54;96015.59;;;-0.16;78.41
49515;BME280;35415;47.870;16.058;2022-12-11T08:12:41;96018.44;;;-0.18;78.04
49515;BME280;35415;47.870;16.058;2022-12-11T08:15:29;96096.38;;;0.38;78.71
49515;BME280;35415;47.870;16.058;2022-12-11T08:18:49;96055.66;;;0.16;78.56
49515;BME280;35415;47.870;16.058;2022-12-11T08:25:45;96026.28;;;-0.11;77.81
49515;BME280;35415;47.870;16.058;2022-12-11T08:31:04;96041.19;;;-0.05;77.75
49515;BME280;35415;47.870;16.058;2022-12-11T08:34:55;96057.97;;;0.12;78.02
49515;BME280;35415;47.870;16.058;2022-12-11T08:37:08;96035.25;;;-0.12;78.08
49515;BME280;35415;47.870;16.058;2022-12-11T08:40:26;96052.91;;;0.11;77.63
49515;BME280;35415;47.870;16.058;2022-12-11T08:43:11;96085.13;;;0.19;77.89
49515;BME280;35415;47.870;16.058;2022-12-11T08:46:00;96022.94;;;-0.18;78.04
49515;BME280;35415;47.870;16.058;2022-12-11T08:48:40;96066.50;;;0.03;78.61
49515;BME280;35415;47.870;16.058;2022-12-11T08:55:09;96111.53;;;0.43;78.81
49515;BME280;35415;47.870;16.058;2022-12-11T09:02:36;96048.78;;;-0.09;79.51
49515;BME280;35415;47.870;16.058;2022-12-11T09:05:29;96058.34;;;-0.08;79.59
49515;BME280;35415;47.870;16.058;2022-12-11T09:12:04;96120.28;;;0.43;80.10
49515;BME280;35415;47.870;16.058;2022-12-11T09:15:02;96088.66;;;0.13;80.52
49515;BME280;35415;47.870;16.058;2022-12-11T09:20:49;96040.16;;;-0.04;80.34
49515;BME280;35415;47.870;16.058;2022-12-11T09:23:56;96045.69;;;-0.06;79.69
49515;BME280;35415;47.870;16.058;2022-12-11T09:26:41;96092.69;;;0.27;80.66
49515;BME280;35415;47.870;16.058;2022-12-11T09:30:06;96027.19;;;-0.06;80.32
49515;BME280;35415;47.870;16.058;2022-12-11T09:34:28;96061.66;;;0.11;79.99
49515;BME280;35415;47.870;16.058;2022-12-11T09:36:02;96046.50;;;0.07;79.84
49515;BME280;35415;47.870;16.058;2022-12-11T09:38:34;96052.22;;;0.27;80.16
49515;BME280;35415;47.870;16.058;2022-12-11T09:44:22;96016.03;;;-0.08;80.81
49515;BME280;35415;47.870;16.058;2022-12-11T09:47:17;96013.06;;;-0.11;81.09
49515;BME280;35415;47.870;16.058;2022-12-11T09:50:04;96067.50;;;0.25;81.87
49515;BME280;35415;47.870;16.058;2022-12-11T09:53:20;96073.38;;;0.39;82.14
49515;BME280;35415;47.870;16.058;2022-12-11T09:56:24;96056.38;;;0.23;82.47
49515;BME280;35415;47.870;16.058;2022-12-11T09:59:17;96056.47;;;0.16;82.88
49515;BME280;35415;47.870;16.058;2022-12-11T10:02:20;95997.66;;;-0.14;83.06
49515;BME280;35415;47.870;16.058;2022-12-11T10:05:23;96061.31;;;0.19;83.70
49515;BME280;35415;47.870;16.058;2022-12-11T10:08:07;96035.31;;;0.16;83.20
49515;BME280;35415;47.870;16.058;2022-12-11T10:10:49;96035.78;;;0.25;83.49
49515;BME280;35415;47.870;16.058;2022-12-11T10:13:51;96008.81;;;-0.12;82.99
49515;BME280;35415;47.870;16.058;2022-12-11T10:20:16;96019.25;;;-0.06;82.42
49515;BME280;35415;47.870;16.058;2022-12-11T10:22:47;96070.97;;;0.37;82.68
49515;BME280;35415;47.870;16.058;2022-12-11T10:26:05;96042.69;;;0.26;83.18
49515;BME280;35415;47.870;16.058;2022-12-11T10:29:15;96029.03;;;0.06;83.05
49515;BME280;35415;47.870;16.058;2022-12-11T10:31:57;96032.38;;;0.01;82.96
49515;BME280;35415;47.870;16.058;2022-12-11T10:34:32;96097.03;;;0.45;82.88
49515;BME280;35415;47.870;16.058;2022-12-11T10:37:07;96083.72;;;0.52;82.84
49515;BME280;35415;47.870;16.058;2022-12-11T10:39:37;96066.00;;;0.29;82.98
49515;BME280;35415;47.870;16.058;2022-12-11T10:42:32;96056.13;;;0.24;83.68
49515;BME280;35415;47.870;16.058;2022-12-11T10:45:22;96036.81;;;0.24;83.91
49515;BME280;35415;47.870;16.058;2022-12-11T10:48:08;96005.56;;;-0.03;83.76
49515;BME280;35415;47.870;16.058;2022-12-11T10:50:56;96016.94;;;0.10;83.35
49515;BME280;35415;47.870;16.058;2022-12-11T10:53:37;95999.94;;;-0.06;83.12
49515;BME280;35415;47.870;16.058;2022-12-11T10:56:47;96019.25;;;0.18;82.49
49515;BME280;35415;47.870;16.058;2022-12-11T10:59:39;96042.78;;;0.31;82.67
49515;BME280;35415;47.870;16.058;2022-12-11T11:02:27;96015.91;;;0.11;82.35
49515;BME280;35415;47.870;16.058;2022-12-11T11:05:29;96032.09;;;0.26;82.38
49515;BME280;35415;47.870;16.058;2022-12-11T11:08:59;96016.38;;;0.19;81.73
49515;BME280;35415;47.870;16.058;2022-12-11T11:11:50;96050.78;;;0.48;81.10
49515;BME280;35415;47.870;16.058;2022-12-11T11:14:45;95980.75;;;-0.02;81.66
49515;BME280;35415;47.870;16.058;2022-12-11T11:18:03;96035.53;;;0.38;81.60
49515;BME280;35415;47.870;16.058;2022-12-11T11:21:14;96047.72;;;0.51;79.03
49515;BME280;35415;47.870;16.058;2022-12-11T11:24:17;96023.22;;;0.32;79.19
49515;BME280;35415;47.870;16.058;2022-12-11T11:27:27;96034.84;;;0.43;78.49
49515;BME280;35415;47.870;16.058;2022-12-11T11:30:56;96049.66;;;0.55;78.34
49515;BME280;35415;47.870;16.058;2022-12-11T11:33:47;96006.69;;;0.13;78.07
49515;BME280;35415;47.870;16.058;2022-12-11T11:36:59;95991.22;;;0.05;78.27
49515;BME280;35415;47.870;16.058;2022-12-11T11:39:52;96053.91;;;0.56;78.58
49515;BME280;35415;47.870;16.058;2022-12-11T11:42:52;96034.28;;;0.29;77.66
49515;BME280;35415;47.870;16.058;2022-12-11T11:46:15;96023.00;;;0.34;77.28
49515;BME280;35415;47.870;16.058;2022-12-11T11:49:44;96018.06;;;0.25;77.16
49515;BME280;35415;47.870;16.058;2022-12-11T11:53:03;95962.13;;;-0.07;77.54
49515;BME280;35415;47.870;16.058;2022-12-11T11:56:50;96007.06;;;-0.07;77.95
49515;BME280;35415;47.870;16.058;2022-12-11T11:59:10;96048.34;;;0.18;76.05
49515;BME280;35415;47.870;16.058;2022-12-11T12:02:34;96019.47;;;0.16;77.00
49515;BME280;35415;47.870;16.058;2022-12-11T12:05:31;96047.63;;;0.22;76.45
49515;BME280;35415;47.870;16.058;2022-12-11T12:09:13;95979.75;;;-0.12;75.90
49515;BME280;35415;47.870;16.058;2022-12-11T12:15:19;96048.09;;;0.19;74.59
49515;BME280;35415;47.870;16.058;2022-12-11T12:19:00;95983.09;;;-0.17;74.33
49515;BME280;35415;47.870;16.058;2022-12-11T12:21:50;96013.41;;;0.04;75.00
49515;BME280;35415;47.870;16.058;2022-12-11T12:25:04;96037.88;;;0.11;74.85
49515;BME280;35415;47.870;16.058;2022-12-11T12:28:21;96006.97;;;-0.12;75.59
49515;BME280;35415;47.870;16.058;2022-12-11T12:35:11;96026.28;;;-0.11;75.38
49515;BME280;35415;47.870;16.058;2022-12-11T12:37:58;95990.88;;;-0.22;75.71
49515;BME280;35415;47.870;16.058;2022-12-11T12:40:52;95994.56;;;-0.23;76.24
49515;BME280;35415;47.870;16.058;2022-12-11T12:44:03;95979.63;;;-0.29;75.83
49515;BME280;35415;47.870;16.058;2022-12-11T12:46:58;95981.81;;;-0.26;75.46
49515;BME280;35415;47.870;16.058;2022-12-11T12:50:26;95995.25;;;-0.27;76.11
49515;BME280;35415;47.870;16.058;2022-12-11T12:53:09;96011.13;;;-0.16;75.29
49515;BME280;35415;47.870;16.058;2022-12-11T12:56:03;96059.47;;;0.20;75.04
49515;BME280;35415;47.870;16.058;2022-12-11T12:58:51;96046.03;;;-0.02;75.11
49515;BME280;35415;47.870;16.058;2022-12-11T13:01:32;96037.66;;;-0.11;75.24
49515;BME280;35415;47.870;16.058;2022-12-11T13:06:50;95995.81;;;-0.37;74.21
49515;BME280;35415;47.870;16.058;2022-12-11T13:09:28;95986.84;;;-0.36;74.41
49515;BME280;35415;47.870;16.058;2022-12-11T13:11:58;96075.78;;;0.17;73.42
49515;BME280;35415;47.870;16.058;2022-12-11T13:14:41;96046.25;;;-0.04;73.39
49515;BME280;35415;47.870;16.058;2022-12-11T13:17:37;96027.53;;;-0.25;73.08
49515;BME280;35415;47.870;16.058;2022-12-11T13:20:15;96080.28;;;0.16;72.64
49515;BME280;35415;47.870;16.058;2022-12-11T13:22:50;96081.53;;;0.14;72.22
49515;BME280;35415;47.870;16.058;2022-12-11T13:25:21;96077.53;;;0.11;72.74
49515;BME280;35415;47.870;16.058;2022-12-11T13:27:49;96083.28;;;0.08;72.42
49515;BME280;35415;47.870;16.058;2022-12-11T13:30:30;96056.03;;;-0.16;72.60
49515;BME280;35415;47.870;16.058;2022-12-11T13:33:13;96050.97;;;-0.17;72.08
49515;BME280;35415;47.870;16.058;2022-12-11T13:36:26;96081.78;;;0.01;72.12
49515;BME280;35415;47.870;16.058;2022-12-11T13:39:22;96054.75;;;-0.25;71.13
49515;BME280;35415;47.870;16.058;2022-12-11T13:42:15;96008.78;;;-0.59;71.58
49515;BME280;35415;47.870;16.058;2022-12-11T13:44:53;96090.97;;;-0.14;71.79
49515;BME280;35415;47.870;16.058;2022-12-11T13:47:37;96027.28;;;-0.59;71.04
49515;BME280;35415;47.870;16.058;2022-12-11T13:50:33;96066.91;;;-0.36;71.67
49515;BME280;35415;47.870;16.058;2022-12-11T13:53:04;96052.78;;;-0.41;70.60
49515;BME280;35415;47.870;16.058;2022-12-11T13:55:37;96070.38;;;-0.47;70.83
49515;BME280;35415;47.870;16.058;2022-12-11T13:58:24;96026.31;;;-0.76;70.44
49515;BME280;35415;47.870;16.058;2022-12-11T14:01:04;96087.72;;;-0.39;70.10
49515;BME280;35415;47.870;16.058;2022-12-11T14:03:50;96122.53;;;-0.31;70.26
49515;BME280;35415;47.870;16.058;2022-12-11T14:06:27;96041.00;;;-0.80;70.70
49515;BME280;35415;47.870;16.058;2022-12-11T14:09:22;96085.63;;;-0.49;70.28
49515;BME280;35415;47.870;16.058;2022-12-11T14:12:21;96041.00;;;-0.80;70.70
49515;BME280;35415;47.870;16.058;2022-12-11T14:15:16;96036.25;;;-0.90;70.06
49515;BME280;35415;47.870;16.058;2022-12-11T14:18:04;96126.66;;;-0.35;70.00
49515;BME280;35415;47.870;16.058;2022-12-11T14:20:56;96119.59;;;-0.52;70.19
49515;BME280;35415;47.870;16.058;2022-12-11T14:23:33;96059.78;;;-1.00;70.01
49515;BME280;35415;47.870;16.058;2022-12-11T14:26:24;96048.75;;;-0.97;70.57
49515;BME280;35415;47.870;16.058;2022-12-11T14:28:53;96074.47;;;-0.93;69.92
49515;BME280;35415;47.870;16.058;2022-12-11T14:31:30;96132.16;;;-0.48;70.40
49515;BME280;35415;47.870;16.058;2022-12-11T14:34:24;96109.91;;;-0.70;70.20
49515;BME280;35415;47.870;16.058;2022-12-11T14:37:05;96104.94;;;-0.78;70.53
49515;BME280;35415;47.870;16.058;2022-12-11T14:39:46;96063.06;;;-1.05;70.85
49515;BME280;35415;47.870;16.058;2022-12-11T14:42:38;96124.00;;;-0.76;70.76
49515;BME280;35415;47.870;16.058;2022-12-11T14:45:18;96131.13;;;-0.77;70.92
49515;BME280;35415;47.870;16.058;2022-12-11T14:48:04;96119.41;;;-0.81;70.80
49515;BME280;35415;47.870;16.058;2022-12-11T14:50:51;96070.72;;;-1.15;70.92
49515;BME280;35415;47.870;16.058;2022-12-11T14:54:13;96133.63;;;-0.82;71.16
49515;BME280;35415;47.870;16.058;2022-12-11T14:56:43;96132.44;;;-0.86;71.32
49515;BME280;35415;47.870;16.058;2022-12-11T14:59:20;96118.06;;;-1.20;71.33
49515;BME280;35415;47.870;16.058;2022-12-11T15:02:23;96190.31;;;-0.66;71.56
49515;BME280;35415;47.870;16.058;2022-12-11T15:05:10;96184.78;;;-0.65;71.39
49515;BME280;35415;47.870;16.058;2022-12-11T15:07:41;96183.84;;;-0.70;71.89
49515;BME280;35415;47.870;16.058;2022-12-11T15:10:24;96197.03;;;-0.70;72.13
49515;BME280;35415;47.870;16.058;2022-12-11T15:12:52;96190.94;;;-0.71;72.53
49515;BME280;35415;47.870;16.058;2022-12-11T15:15:19;96199.09;;;-0.72;73.29
49515;BME280;35415;47.870;16.058;2022-12-11T15:18:19;96209.31;;;-0.76;73.66
49515;BME280;35415;47.870;16.058;2022-12-11T15:20:55;96162.19;;;-1.09;74.20
49515;BME280;35415;47.870;16.058;2022-12-11T15:24:00;96225.47;;;-0.84;75.47
49515;BME280;35415;47.870;16.058;2022-12-11T15:26:45;96144.44;;;-1.38;76.11
49515;BME280;35415;47.870;16.058;2022-12-11T15:29:37;96136.03;;;-1.47;76.96
49515;BME280;35415;47.870;16.058;2022-12-11T15:32:42;96198.53;;;-1.11;77.88
49515;BME280;35415;47.870;16.058;2022-12-11T15:37:15;96201.84;;;-1.15;78.37
49515;BME280;35415;47.870;16.058;2022-12-11T15:38:26;96235.78;;;-1.01;78.80
49515;BME280;35415;47.870;16.058;2022-12-11T15:40:55;96240.03;;;-1.00;78.98
49515;BME280;35415;47.870;16.058;2022-12-11T15:43:25;96238.63;;;-1.02;79.20
49515;BME280;35415;47.870;16.058;2022-12-11T15:46:06;96212.22;;;-1.21;79.40
49515;BME280;35415;47.870;16.058;2022-12-11T15:48:34;96244.78;;;-1.08;79.75
49515;BME280;35415;47.870;16.058;2022-12-11T15:51:03;96232.75;;;-1.04;79.70
49515;BME280;35415;47.870;16.058;2022-12-11T15:53:33;96238.72;;;-1.09;80.15
49515;BME280;35415;47.870;16.058;2022-12-11T15:56:00;96236.50;;;-1.12;80.32
49515;BME280;35415;47.870;16.058;2022-12-11T15:58:29;96237.97;;;-1.16;80.70
49515;BME280;35415;47.870;16.058;2022-12-11T16:00:57;96254.84;;;-1.17;80.67
49515;BME280;35415;47.870;16.058;2022-12-11T16:03:24;96249.16;;;-1.21;80.55
49515;BME280;35415;47.870;16.058;2022-12-11T16:05:53;96222.53;;;-1.37;80.62
49515;BME280;35415;47.870;16.058;2022-12-11T16:08:23;96212.56;;;-1.54;80.60
49515;BME280;35415;47.870;16.058;2022-12-11T16:11:24;96142.06;;;-1.83;80.69
49515;BME280;35415;47.870;16.058;2022-12-11T16:17:01;96212.34;;;-1.52;80.58
49515;BME280;35415;47.870;16.058;2022-12-11T16:19:43;96216.41;;;-1.49;80.45
49515;BME280;35415;47.870;16.058;2022-12-11T16:22:13;96249.09;;;-1.32;80.31
49515;BME280;35415;47.870;16.058;2022-12-11T16:24:52;96248.28;;;-1.33;80.62
49515;BME280;35415;47.870;16.058;2022-12-11T16:27:24;96256.22;;;-1.33;80.47
49515;BME280;35415;47.870;16.058;2022-12-11T16:29:53;96203.19;;;-1.68;80.89
49515;BME280;35415;47.870;16.058;2022-12-11T16:33:00;96192.75;;;-1.81;81.15
49515;BME280;35415;47.870;16.058;2022-12-11T16:35:58;96154.03;;;-1.87;81.59
49515;BME280;35415;47.870;16.058;2022-12-11T16:38:51;96235.00;;;-1.44;81.92
49515;BME280;35415;47.870;16.058;2022-12-11T16:41:30;96168.09;;;-1.93;82.28
49515;BME280;35415;47.870;16.058;2022-12-11T16:44:11;96217.69;;;-1.59;82.48
49515;BME280;35415;47.870;16.058;2022-12-11T16:47:01;96246.28;;;-1.37;82.95